sensor_id;sensor_type;location;lat;lon;timestamp;pressure;altitude;pressure_sealevel;temperature;humidity
14253;BME280;7210;51.502;10.722;2023-03-24T00:00:47;98503.94;;;10.12;100.00
14253;BME280;7210;51.502;10.722;2023-03-24T00:03:14;98506.63;;;10.17;100.00
14253;BME280;7210;51.502;10.722;2023-03-24T00:05:42;98494.50;;;10.21;100.00
14253;BME280;7210;51.502;10.722;2023-03-24T00:08:10;98505.38;;;10.24;100.00
14253;BME280;7210;51.502;10.722;2023-03-24T00:10:37;98502.72;;;10.24;100.00
14253;BME280;7210;51.502;10.722;2023-03-24T00:13:05;98497.50;;;10.29;100.00
14253;BME280;7210;51.502;10.722;2023-03-24T00:15:33;98501.78;;;10.35;100.00
14253;BME280;7210;51.502;10.722;2023-03-24T00:18:01;98512.94;;;10.42;100.00
14253;BME280;7210;51.502;10.722;2023-03-24T00:20:28;98506.91;;;10.52;100.00
14253;BME280;7210;51.502;10.722;2023-03-24T00:22:55;98509.09;;;10.60;100.00
14253;BME280;7210;51.502;10.722;2023-03-24T00:25:30;98506.53;;;10.70;100.00
14253;BME280;7210;51.502;10.722;2023-03-24T00:28:01;98513.47;;;10.81;100.00
14253;BME280;7210;51.502;10.722;2023-03-24T00:30:30;98511.16;;;10.89;100.00
14253;BME280;7210;51.502;10.722;2023-03-24T00:33:04;98507.56;;;11.05;100.00
14253;BME280;7210;51.502;10.722;2023-03-24T00:35:31;98502.28;;;11.10;100.00
14253;BME280;7210;51.502;10.722;2023-03-24T00:37:59;98498.63;;;11.16;100.00
14253;BME280;7210;51.502;10.722;2023-03-24T00:40:26;98484.91;;;11.24;100.00
14253;BME280;7210;51.502;10.722;2023-03-24T00:42:54;98488.09;;;11.31;100.00
14253;BME280;7210;51.502;10.722;2023-03-24T00:45:21;98480.16;;;11.31;100.00
14253;BME280;7210;51.502;10.722;2023-03-24T00:47:49;98478.88;;;11.33;100.00
14253;BME280;7210;51.502;10.722;2023-03-24T00:50:21;98492.66;;;11.40;100.00
14253;BME280;7210;51.502;10.722;2023-03-24T00:52:51;98474.91;;;11.41;100.00
14253;BME280;7210;51.502;10.722;2023-03-24T00:55:19;98486.59;;;11.45;100.00
14253;BME280;7210;51.502;10.722;2023-03-24T00:57:48;98491.34;;;11.48;100.00
14253;BME280;7210;51.502;10.722;2023-03-24T01:00:19;98490.28;;;11.49;100.00
14253;BME280;7210;51.502;10.722;2023-03-24T01:02:49;98507.25;;;11.53;100.00
14253;BME280;7210;51.502;10.722;2023-03-24T01:05:20;98495.63;;;11.54;100.00
14253;BME280;7210;51.502;10.722;2023-03-24T01:07:48;98496.69;;;11.58;100.00
14253;BME280;7210;51.502;10.722;2023-03-24T01:10:20;98491.41;;;11.58;100.00
14253;BME280;7210;51.502;10.722;2023-03-24T01:12:53;98493.50;;;11.56;100.00
14253;BME280;7210;51.502;10.722;2023-03-24T01:15:23;98490.63;;;11.57;100.00
14253;BME280;7210;51.502;10.722;2023-03-24T01:17:51;98492.22;;;11.58;100.00
14253;BME280;7210;51.502;10.722;2023-03-24T01:20:22;98484.50;;;11.57;100.00
14253;BME280;7210;51.502;10.722;2023-03-24T01:22:50;98481.31;;;11.55;100.00
14253;BME280;7210;51.502;10.722;2023-03-24T01:25:21;98478.13;;;11.53;100.00
14253;BME280;7210;51.502;10.722;2023-03-24T01:27:50;98480.53;;;11.54;100.00
14253;BME280;7210;51.502;10.722;2023-03-24T01:30:21;98476.84;;;11.55;100.00
14253;BME280;7210;51.502;10.722;2023-03-24T01:32:49;98475.53;;;11.58;100.00
14253;BME280;7210;51.502;10.722;2023-03-24T01:35:17;98461.72;;;11.56;100.00
14253;BME280;7210;51.502;10.722;2023-03-24T01:37:47;98451.16;;;11.56;100.00
14253;BME280;7210;51.502;10.722;2023-03-24T01:40:19;98444.78;;;11.52;100.00
14253;BME280;7210;51.502;10.722;2023-03-24T01:42:47;98446.63;;;11.51;100.00
14253;BME280;7210;51.502;10.722;2023-03-24T01:45:47;98438.94;;;11.50;100.00
14253;BME280;7210;51.502;10.722;2023-03-24T01:48:23;98435.25;;;11.51;100.00
14253;BME280;7210;51.502;10.722;2023-03-24T01:50:56;98426.53;;;11.50;100.00
14253;BME280;7210;51.502;10.722;2023-03-24T01:53:29;98417.25;;;11.48;100.00
14253;BME280;7210;51.502;10.722;2023-03-24T01:55:59;98419.38;;;11.46;100.00
14253;BME280;7210;51.502;10.722;2023-03-24T01:58:35;98406.38;;;11.44;100.00
14253;BME280;7210;51.502;10.722;2023-03-24T02:01:23;98400.03;;;11.45;100.00
14253;BME280;7210;51.502;10.722;2023-03-24T02:04:07;98399.78;;;11.47;100.00
14253;BME280;7210;51.502;10.722;2023-03-24T02:06:41;98386.28;;;11.48;100.00
14253;BME280;7210;51.502;10.722;2023-03-24T02:09:12;98382.34;;;11.51;100.00
14253;BME280;7210;51.502;10.722;2023-03-24T02:11:41;98371.22;;;11.54;100.00
14253;BME280;7210;51.502;10.722;2023-03-24T02:14:11;98364.84;;;11.55;100.00
14253;BME280;7210;51.502;10.722;2023-03-24T02:17:02;98360.09;;;11.57;100.00
14253;BME280;7210;51.502;10.722;2023-03-24T02:26:46;98334.19;;;11.59;100.00
14253;BME280;7210;51.502;10.722;2023-03-24T02:30:04;98315.66;;;11.59;100.00
14253;BME280;7210;51.502;10.722;2023-03-24T02:33:18;98310.88;;;11.71;100.00
14253;BME280;7210;51.502;10.722;2023-03-24T02:39:44;98288.09;;;11.80;100.00
14253;BME280;7210;51.502;10.722;2023-03-24T02:42:28;98285.47;;;11.85;100.00
14253;BME280;7210;51.502;10.722;2023-03-24T02:45:08;98280.69;;;11.87;100.00
14253;BME280;7210;51.502;10.722;2023-03-24T02:47:50;98273.53;;;11.92;100.00
14253;BME280;7210;51.502;10.722;2023-03-24T02:50:29;98261.63;;;11.90;100.00
14253;BME280;7210;51.502;10.722;2023-03-24T02:53:07;98259.00;;;11.90;100.00
14253;BME280;7210;51.502;10.722;2023-03-24T02:55:55;98277.50;;;11.95;100.00
14253;BME280;7210;51.502;10.722;2023-03-24T02:58:33;98262.94;;;11.97;100.00
14253;BME280;7210;51.502;10.722;2023-03-24T03:01:06;98261.34;;;12.01;100.00
14253;BME280;7210;51.502;10.722;2023-03-24T03:04:04;98262.38;;;12.10;100.00
14253;BME280;7210;51.502;10.722;2023-03-24T03:06:37;98262.88;;;12.22;100.00
14253;BME280;7210;51.502;10.722;2023-03-24T03:09:09;98258.59;;;12.31;100.00
14253;BME280;7210;51.502;10.722;2023-03-24T03:14:35;98230.81;;;12.29;100.00
14253;BME280;7210;51.502;10.722;2023-03-24T03:17:09;98227.09;;;12.25;100.00
14253;BME280;7210;51.502;10.722;2023-03-24T03:19:43;98225.50;;;12.24;100.00
14253;BME280;7210;51.502;10.722;2023-03-24T03:22:17;98218.13;;;12.21;100.00
14253;BME280;7210;51.502;10.722;2023-03-24T03:24:49;98215.97;;;12.18;100.00
14253;BME280;7210;51.502;10.722;2023-03-24T03:27:23;98208.06;;;12.13;100.00
14253;BME280;7210;51.502;10.722;2023-03-24T03:29:58;98213.63;;;12.06;100.00
14253;BME280;7210;51.502;10.722;2023-03-24T03:32:31;98217.59;;;12.09;100.00
14253;BME280;7210;51.502;10.722;2023-03-24T03:35:06;98223.47;;;12.06;100.00
14253;BME280;7210;51.502;10.722;2023-03-24T03:37:43;98221.34;;;12.03;100.00
14253;BME280;7210;51.502;10.722;2023-03-24T03:40:19;98228.75;;;12.06;100.00
14253;BME280;7210;51.502;10.722;2023-03-24T03:42:52;98232.69;;;12.08;100.00
14253;BME280;7210;51.502;10.722;2023-03-24T03:45:21;98244.63;;;12.11;100.00
14253;BME280;7210;51.502;10.722;2023-03-24T03:47:49;98241.44;;;12.14;100.00
14253;BME280;7210;51.502;10.722;2023-03-24T03:50:17;98240.91;;;12.12;100.00
14253;BME280;7210;51.502;10.722;2023-03-24T03:52:44;98247.25;;;12.11;100.00
14253;BME280;7210;51.502;10.722;2023-03-24T03:55:12;98236.66;;;12.11;100.00
14253;BME280;7210;51.502;10.722;2023-03-24T03:57:42;98238.81;;;12.09;100.00
14253;BME280;7210;51.502;10.722;2023-03-24T04:00:30;98221.31;;;12.08;100.00
14253;BME280;7210;51.502;10.722;2023-03-24T04:03:57;98223.47;;;12.06;100.00
14253;BME280;7210;51.502;10.722;2023-03-24T04:07:02;98232.47;;;12.05;100.00
14253;BME280;7210;51.502;10.722;2023-03-24T04:09:44;98220.25;;;12.04;100.00
14253;BME280;7210;51.502;10.722;2023-03-24T04:12:44;98220.25;;;12.04;100.00
14253;BME280;7210;51.502;10.722;2023-03-24T04:15:44;98219.75;;;12.02;100.00
14253;BME280;7210;51.502;10.722;2023-03-24T04:18:59;98215.50;;;12.01;100.00
14253;BME280;7210;51.502;10.722;2023-03-24T04:21:46;98221.06;;;11.99;100.00
14253;BME280;7210;51.502;10.722;2023-03-24T04:24:36;98216.31;;;11.96;100.00
14253;BME280;7210;51.502;10.722;2023-03-24T04:27:13;98216.59;;;11.95;100.00
14253;BME280;7210;51.502;10.722;2023-03-24T04:29:59;98212.63;;;11.92;100.00
14253;BME280;7210;51.502;10.722;2023-03-24T04:32:38;98210.25;;;11.91;100.00
14253;BME280;7210;51.502;10.722;2023-03-24T04:35:12;98202.81;;;11.93;100.00
14253;BME280;7210;51.502;10.722;2023-03-24T04:38:13;98205.47;;;11.98;100.00
14253;BME280;7210;51.502;10.722;2023-03-24T04:40:46;98198.56;;;11.97;100.00
14253;BME280;7210;51.502;10.722;2023-03-24T04:43:19;98185.59;;;11.95;100.00
14253;BME280;7210;51.502;10.722;2023-03-24T04:45:51;98185.09;;;11.93;100.00
14253;BME280;7210;51.502;10.722;2023-03-24T04:48:39;98184.81;;;11.95;100.00
14253;BME280;7210;51.502;10.722;2023-03-24T04:51:12;98187.97;;;11.97;100.00
14253;BME280;7210;51.502;10.722;2023-03-24T04:53:51;98178.72;;;11.94;100.00
14253;BME280;7210;51.502;10.722;2023-03-24T04:56:33;98174.22;;;11.95;100.00
14253;BME280;7210;51.502;10.722;2023-03-24T04:59:06;98171.56;;;11.95;100.00
14253;BME280;7210;51.502;10.722;2023-03-24T05:01:35;98172.63;;;11.94;100.00
14253;BME280;7210;51.502;10.722;2023-03-24T05:04:30;98161.22;;;11.98;100.00
14253;BME280;7210;51.502;10.722;2023-03-24T05:07:08;98156.72;;;11.99;100.00
14253;BME280;7210;51.502;10.722;2023-03-24T05:09:36;98154.09;;;11.99;100.00
14253;BME280;7210;51.502;10.722;2023-03-24T05:12:04;98153.00;;;12.00;100.00
14253;BME280;7210;51.502;10.722;2023-03-24T05:14:49;98158.56;;;11.98;100.00
14253;BME280;7210;51.502;10.722;2023-03-24T05:17:17;98145.84;;;12.00;100.00
14253;BME280;7210;51.502;10.722;2023-03-24T05:19:45;98148.78;;;11.99;100.00
14253;BME280;7210;51.502;10.722;2023-03-24T05:22:12;98147.72;;;11.95;100.00
14253;BME280;7210;51.502;10.722;2023-03-24T05:24:39;98151.19;;;11.90;100.00
14253;BME280;7210;51.502;10.722;2023-03-24T05:27:07;98156.22;;;11.87;100.00
14253;BME280;7210;51.502;10.722;2023-03-24T05:29:34;98152.81;;;11.81;100.00
14253;BME280;7210;51.502;10.722;2023-03-24T05:32:01;98164.72;;;11.79;100.00
14253;BME280;7210;51.502;10.722;2023-03-24T05:34:30;98172.16;;;11.77;100.00
14253;BME280;7210;51.502;10.722;2023-03-24T05:37:07;98175.59;;;11.72;100.00
14253;BME280;7210;51.502;10.722;2023-03-24T05:39:37;98189.63;;;11.73;100.00
14253;BME280;7210;51.502;10.722;2023-03-24T05:42:08;98191.75;;;11.76;100.00
14253;BME280;7210;51.502;10.722;2023-03-24T05:44:36;98195.47;;;11.75;100.00
14253;BME280;7210;51.502;10.722;2023-03-24T05:47:06;98190.44;;;11.73;100.00
14253;BME280;7210;51.502;10.722;2023-03-24T05:49:33;98194.66;;;11.74;100.00
14253;BME280;7210;51.502;10.722;2023-03-24T05:52:01;98195.97;;;11.72;100.00
14253;BME280;7210;51.502;10.722;2023-03-24T05:54:30;98184.88;;;11.75;100.00
14253;BME280;7210;51.502;10.722;2023-03-24T05:57:13;98194.09;;;11.77;100.00
14253;BME280;7210;51.502;10.722;2023-03-24T06:00:08;98190.69;;;11.82;100.00
14253;BME280;7210;51.502;10.722;2023-03-24T06:02:49;98178.47;;;11.81;100.00
14253;BME280;7210;51.502;10.722;2023-03-24T06:05:39;98185.66;;;11.85;100.00
14253;BME280;7210;51.502;10.722;2023-03-24T06:08:07;98173.69;;;11.88;100.00
14253;BME280;7210;51.502;10.722;2023-03-24T06:10:37;98176.34;;;11.88;100.00
14253;BME280;7210;51.502;10.722;2023-03-24T06:13:06;98180.56;;;11.99;100.00
14253;BME280;7210;51.502;10.722;2023-03-24T06:15:35;98191.13;;;12.09;100.00
14253;BME280;7210;51.502;10.722;2023-03-24T06:18:25;98200.63;;;12.15;100.00
14253;BME280;7210;51.502;10.722;2023-03-24T06:20:54;98182.09;;;12.15;100.00
14253;BME280;7210;51.502;10.722;2023-03-24T06:23:28;98185.53;;;12.15;100.00
14253;BME280;7210;51.502;10.722;2023-03-24T06:26:08;98177.88;;;12.14;100.00
14253;BME280;7210;51.502;10.722;2023-03-24T06:28:42;98182.59;;;12.17;100.00
14253;BME280;7210;51.502;10.722;2023-03-24T06:31:27;98171.25;;;12.16;100.00
14253;BME280;7210;51.502;10.722;2023-03-24T06:33:55;98179.94;;;12.22;100.00
14253;BME280;7210;51.502;10.722;2023-03-24T06:36:22;98173.59;;;12.23;100.00
14253;BME280;7210;51.502;10.722;2023-03-24T06:38:51;98178.88;;;12.23;100.00
14253;BME280;7210;51.502;10.722;2023-03-24T06:41:22;98162.44;;;12.26;100.00
14253;BME280;7210;51.502;10.722;2023-03-24T06:43:56;98157.63;;;12.28;100.00
14253;BME280;7210;51.502;10.722;2023-03-24T06:46:24;98158.19;;;12.25;100.00
14253;BME280;7210;51.502;10.722;2023-03-24T06:48:52;98158.19;;;12.25;100.00
14253;BME280;7210;51.502;10.722;2023-03-24T06:51:19;98152.34;;;12.28;100.00
14253;BME280;7210;51.502;10.722;2023-03-24T06:53:47;98146.03;;;12.24;100.00
14253;BME280;7210;51.502;10.722;2023-03-24T06:56:14;98158.69;;;12.32;100.00
14253;BME280;7210;51.502;10.722;2023-03-24T06:58:48;98161.34;;;12.37;100.00
14253;BME280;7210;51.502;10.722;2023-03-24T07:01:24;98159.44;;;12.42;100.00
14253;BME280;7210;51.502;10.722;2023-03-24T07:03:51;98126.31;;;12.45;100.00
14253;BME280;7210;51.502;10.722;2023-03-24T07:06:29;98149.44;;;12.73;100.00
14253;BME280;7210;51.502;10.722;2023-03-24T07:09:04;98149.56;;;12.91;100.00
14253;BME280;7210;51.502;10.722;2023-03-24T07:11:31;98134.13;;;13.03;100.00
14253;BME280;7210;51.502;10.722;2023-03-24T07:14:01;98131.13;;;13.15;100.00
14253;BME280;7210;51.502;10.722;2023-03-24T07:16:30;98129.97;;;13.21;100.00
14253;BME280;7210;51.502;10.722;2023-03-24T07:19:07;98116.72;;;13.21;100.00
14253;BME280;7210;51.502;10.722;2023-03-24T07:21:37;98120.91;;;13.27;100.00
14253;BME280;7210;51.502;10.722;2023-03-24T07:24:05;98121.88;;;13.36;100.00
14253;BME280;7210;51.502;10.722;2023-03-24T07:26:41;98120.84;;;13.37;100.00
14253;BME280;7210;51.502;10.722;2023-03-24T07:29:27;98112.28;;;13.40;100.00
14253;BME280;7210;51.502;10.722;2023-03-24T07:32:15;98097.16;;;13.40;100.00
14253;BME280;7210;51.502;10.722;2023-03-24T07:34:43;98090.47;;;13.43;100.00
14253;BME280;7210;51.502;10.722;2023-03-24T07:37:11;98080.94;;;13.42;100.00
14253;BME280;7210;51.502;10.722;2023-03-24T07:39:38;98078.28;;;13.42;100.00
14253;BME280;7210;51.502;10.722;2023-03-24T07:42:06;98081.97;;;13.46;100.00
14253;BME280;7210;51.502;10.722;2023-03-24T07:44:53;98092.44;;;13.61;100.00
14253;BME280;7210;51.502;10.722;2023-03-24T07:47:20;98107.84;;;13.82;100.00
14253;BME280;7210;51.502;10.722;2023-03-24T07:49:48;98109.47;;;14.02;100.00
14253;BME280;7210;51.502;10.722;2023-03-24T07:52:19;98112.50;;;14.14;100.00
14253;BME280;7210;51.502;10.722;2023-03-24T07:54:50;98110.84;;;14.23;100.00
14253;BME280;7210;51.502;10.722;2023-03-24T07:57:37;98116.50;;;14.35;100.00
14253;BME280;7210;51.502;10.722;2023-03-24T08:00:10;98091.63;;;14.26;100.00
14253;BME280;7210;51.502;10.722;2023-03-24T08:02:52;98090.00;;;14.30;99.96
14253;BME280;7210;51.502;10.722;2023-03-24T08:05:41;98107.97;;;14.38;99.86
14253;BME280;7210;51.502;10.722;2023-03-24T08:08:19;98124.16;;;14.41;96.94
14253;BME280;7210;51.502;10.722;2023-03-24T08:10:47;98127.50;;;14.47;95.40
14253;BME280;7210;51.502;10.722;2023-03-24T08:13:15;98100.19;;;14.23;95.29
14253;BME280;7210;51.502;10.722;2023-03-24T08:15:44;98128.44;;;14.14;99.19
14253;BME280;7210;51.502;10.722;2023-03-24T08:18:11;98139.78;;;14.01;99.73
14253;BME280;7210;51.502;10.722;2023-03-24T08:20:38;98166.13;;;13.97;100.00
14253;BME280;7210;51.502;10.722;2023-03-24T08:23:05;98188.50;;;13.91;100.00
14253;BME280;7210;51.502;10.722;2023-03-24T08:25:33;98178.88;;;13.72;100.00
14253;BME280;7210;51.502;10.722;2023-03-24T08:28:01;98195.00;;;13.52;100.00
14253;BME280;7210;51.502;10.722;2023-03-24T08:30:29;98184.53;;;13.37;100.00
14253;BME280;7210;51.502;10.722;2023-03-24T08:33:00;98171.81;;;13.00;100.00
14253;BME280;7210;51.502;10.722;2023-03-24T08:35:31;98151.00;;;12.74;100.00
14253;BME280;7210;51.502;10.722;2023-03-24T08:37:59;98172.78;;;12.76;100.00
14253;BME280;7210;51.502;10.722;2023-03-24T08:40:28;98191.09;;;12.67;100.00
14253;BME280;7210;51.502;10.722;2023-03-24T08:42:59;98221.13;;;12.58;100.00
14253;BME280;7210;51.502;10.722;2023-03-24T08:45:30;98238.13;;;12.52;100.00
14253;BME280;7210;51.502;10.722;2023-03-24T08:48:03;98232.59;;;12.38;100.00
14253;BME280;7210;51.502;10.722;2023-03-24T08:50:35;98246.66;;;12.44;100.00
14253;BME280;7210;51.502;10.722;2023-03-24T08:53:03;98258.28;;;12.48;100.00
14253;BME280;7210;51.502;10.722;2023-03-24T08:55:32;98267.53;;;12.55;100.00
14253;BME280;7210;51.502;10.722;2023-03-24T08:58:00;98246.00;;;12.67;100.00
14253;BME280;7210;51.502;10.722;2023-03-24T09:00:27;98272.44;;;12.82;100.00
14253;BME280;7210;51.502;10.722;2023-03-24T09:02:55;98275.56;;;12.99;100.00
14253;BME280;7210;51.502;10.722;2023-03-24T09:05:24;98283.91;;;13.21;100.00
14253;BME280;7210;51.502;10.722;2023-03-24T09:07:52;98293.25;;;13.52;100.00
14253;BME280;7210;51.502;10.722;2023-03-24T09:10:20;98290.34;;;13.82;100.00
14253;BME280;7210;51.502;10.722;2023-03-24T09:12:49;98308.16;;;14.10;100.00
14253;BME280;7210;51.502;10.722;2023-03-24T09:15:16;98294.53;;;14.21;100.00
14253;BME280;7210;51.502;10.722;2023-03-24T09:17:44;98283.09;;;14.21;100.00
14253;BME280;7210;51.502;10.722;2023-03-24T09:20:13;98276.66;;;14.27;100.00
14253;BME280;7210;51.502;10.722;2023-03-24T09:22:45;98279.28;;;14.32;100.00
14253;BME280;7210;51.502;10.722;2023-03-24T09:25:17;98284.00;;;14.35;100.00
14253;BME280;7210;51.502;10.722;2023-03-24T09:27:45;98276.75;;;14.40;100.00
14253;BME280;7210;51.502;10.722;2023-03-24T09:30:16;98278.94;;;14.62;100.00
14253;BME280;7210;51.502;10.722;2023-03-24T09:32:49;98277.34;;;14.61;99.70
14253;BME280;7210;51.502;10.722;2023-03-24T09:35:17;98257.19;;;14.55;98.86
14253;BME280;7210;51.502;10.722;2023-03-24T09:37:45;98264.66;;;14.53;98.64
14253;BME280;7210;51.502;10.722;2023-03-24T09:40:19;98269.78;;;14.68;97.93
14253;BME280;7210;51.502;10.722;2023-03-24T09:42:54;98259.22;;;14.63;96.99
14253;BME280;7210;51.502;10.722;2023-03-24T09:45:26;98273.53;;;14.67;97.06
14253;BME280;7210;51.502;10.722;2023-03-24T09:48:00;98267.94;;;14.68;96.64
14253;BME280;7210;51.502;10.722;2023-03-24T09:50:35;98263.81;;;14.76;95.86
14253;BME280;7210;51.502;10.722;2023-03-24T09:53:17;98224.22;;;14.74;93.68
14253;BME280;7210;51.502;10.722;2023-03-24T09:55:51;98204.88;;;14.69;92.51
14253;BME280;7210;51.502;10.722;2023-03-24T09:58:19;98213.13;;;14.67;92.12
14253;BME280;7210;51.502;10.722;2023-03-24T10:00:48;98206.25;;;14.66;90.80
14253;BME280;7210;51.502;10.722;2023-03-24T10:03:19;98203.28;;;14.68;89.69
14253;BME280;7210;51.502;10.722;2023-03-24T10:05:53;98197.53;;;14.61;89.21
14253;BME280;7210;51.502;10.722;2023-03-24T10:08:32;98185.88;;;14.57;88.73
14253;BME280;7210;51.502;10.722;2023-03-24T10:11:04;98216.88;;;14.66;88.52
14253;BME280;7210;51.502;10.722;2023-03-24T10:13:48;98197.41;;;14.71;87.58
14253;BME280;7210;51.502;10.722;2023-03-24T10:16:26;98220.53;;;14.70;88.11
14253;BME280;7210;51.502;10.722;2023-03-24T10:19:20;98225.53;;;14.77;87.54
14253;BME280;7210;51.502;10.722;2023-03-24T10:21:59;98251.84;;;14.97;87.31
14253;BME280;7210;51.502;10.722;2023-03-24T10:24:37;98264.06;;;15.16;87.04
14253;BME280;7210;51.502;10.722;2023-03-24T10:27:20;98249.13;;;15.20;86.03
14253;BME280;7210;51.502;10.722;2023-03-24T10:29:53;98264.72;;;15.26;85.76
14253;BME280;7210;51.502;10.722;2023-03-24T10:32:28;98266.25;;;15.51;84.99
14253;BME280;7210;51.502;10.722;2023-03-24T10:35:00;98241.84;;;15.44;84.17
14253;BME280;7210;51.502;10.722;2023-03-24T10:37:34;98232.06;;;15.39;83.78
14253;BME280;7210;51.502;10.722;2023-03-24T10:40:14;98227.09;;;15.33;83.35
14253;BME280;7210;51.502;10.722;2023-03-24T10:42:44;98209.88;;;15.25;82.62
14253;BME280;7210;51.502;10.722;2023-03-24T10:45:22;98213.84;;;15.28;81.87
14253;BME280;7210;51.502;10.722;2023-03-24T10:47:52;98204.84;;;15.06;81.95
14253;BME280;7210;51.502;10.722;2023-03-24T10:50:25;98198.59;;;14.97;81.11
14253;BME280;7210;51.502;10.722;2023-03-24T10:52:53;98197.84;;;14.78;80.81
14253;BME280;7210;51.502;10.722;2023-03-24T10:55:29;98223.72;;;14.91;80.50
14253;BME280;7210;51.502;10.722;2023-03-24T10:57:59;98232.22;;;14.93;80.49
14253;BME280;7210;51.502;10.722;2023-03-24T11:00:29;98236.66;;;14.79;80.46
14253;BME280;7210;51.502;10.722;2023-03-24T11:03:00;98226.38;;;14.72;80.13
14253;BME280;7210;51.502;10.722;2023-03-24T11:05:32;98265.00;;;14.70;80.39
14253;BME280;7210;51.502;10.722;2023-03-24T11:08:22;98288.53;;;14.81;80.45
14253;BME280;7210;51.502;10.722;2023-03-24T11:10:54;98262.84;;;14.72;80.48
14253;BME280;7210;51.502;10.722;2023-03-24T11:13:31;98279.47;;;14.59;80.79
14253;BME280;7210;51.502;10.722;2023-03-24T11:16:11;98320.81;;;14.51;81.60
14253;BME280;7210;51.502;10.722;2023-03-24T11:18:55;98313.75;;;14.37;81.39
14253;BME280;7210;51.502;10.722;2023-03-24T11:21:23;98335.94;;;14.27;82.03
14253;BME280;7210;51.502;10.722;2023-03-24T11:23:51;98318.22;;;14.13;81.91
14253;BME280;7210;51.502;10.722;2023-03-24T11:26:28;98323.03;;;14.11;81.53
14253;BME280;7210;51.502;10.722;2023-03-24T11:29:05;98331.25;;;14.14;78.78
14253;BME280;7210;51.502;10.722;2023-03-24T11:31:37;98342.03;;;14.28;80.86
14253;BME280;7210;51.502;10.722;2023-03-24T11:34:11;98341.84;;;14.48;81.75
14253;BME280;7210;51.502;10.722;2023-03-24T11:36:43;98330.25;;;14.62;80.97
14253;BME280;7210;51.502;10.722;2023-03-24T11:39:17;98323.16;;;14.76;80.20
14253;BME280;7210;51.502;10.722;2023-03-24T11:42:00;98279.06;;;14.70;78.78
14253;BME280;7210;51.502;10.722;2023-03-24T11:44:39;98281.69;;;14.75;78.53
14253;BME280;7210;51.502;10.722;2023-03-24T11:47:12;98238.66;;;14.68;77.43
14253;BME280;7210;51.502;10.722;2023-03-24T11:49:47;98230.97;;;14.67;77.24
14253;BME280;7210;51.502;10.722;2023-03-24T11:52:23;98308.66;;;14.87;77.56
14253;BME280;7210;51.502;10.722;2023-03-24T11:54:51;98214.94;;;14.72;71.81
14253;BME280;7210;51.502;10.722;2023-03-24T11:57:37;98192.00;;;14.57;74.56
14253;BME280;7210;51.502;10.722;2023-03-24T12:00:16;98238.19;;;14.43;75.21
14253;BME280;7210;51.502;10.722;2023-03-24T12:03:17;98239.66;;;14.07;75.66
14253;BME280;7210;51.502;10.722;2023-03-24T12:05:57;98269.41;;;13.80;76.32
14253;BME280;7210;51.502;10.722;2023-03-24T12:08:41;98330.78;;;13.74;76.70
14253;BME280;7210;51.502;10.722;2023-03-24T12:11:19;98333.03;;;13.62;77.41
14253;BME280;7210;51.502;10.722;2023-03-24T12:13:53;98373.69;;;13.57;77.65
14253;BME280;7210;51.502;10.722;2023-03-24T12:16:43;98388.00;;;13.61;77.58
14253;BME280;7210;51.502;10.722;2023-03-24T12:19:54;98376.53;;;13.66;77.20
14253;BME280;7210;51.502;10.722;2023-03-24T12:22:37;98358.50;;;13.63;77.39
14253;BME280;7210;51.502;10.722;2023-03-24T12:25:37;98435.63;;;13.86;77.91
14253;BME280;7210;51.502;10.722;2023-03-24T12:31:58;98427.59;;;14.35;77.14
14253;BME280;7210;51.502;10.722;2023-03-24T12:35:01;98422.13;;;14.55;76.79
14253;BME280;7210;51.502;10.722;2023-03-24T12:37:37;98481.31;;;14.94;77.03
14253;BME280;7210;51.502;10.722;2023-03-24T12:43:32;98408.41;;;15.36;74.65
14253;BME280;7210;51.502;10.722;2023-03-24T12:46:19;98345.25;;;15.42;73.58
14253;BME280;7210;51.502;10.722;2023-03-24T12:49:12;98361.28;;;15.55;73.66
14253;BME280;7210;51.502;10.722;2023-03-24T12:51:52;98374.38;;;15.70;73.17
14253;BME280;7210;51.502;10.722;2023-03-24T12:54:32;98317.72;;;15.46;73.00
14253;BME280;7210;51.502;10.722;2023-03-24T12:57:07;98279.22;;;15.39;72.17
14253;BME280;7210;51.502;10.722;2023-03-24T12:59:40;98268.84;;;15.37;71.60
14253;BME280;7210;51.502;10.722;2023-03-24T13:02:22;98374.94;;;15.49;72.75
14253;BME280;7210;51.502;10.722;2023-03-24T13:05:00;98349.66;;;15.28;72.52
14253;BME280;7210;51.502;10.722;2023-03-24T13:07:34;98408.56;;;15.21;73.59
14253;BME280;7210;51.502;10.722;2023-03-24T13:10:13;98402.81;;;15.14;73.54
14253;BME280;7210;51.502;10.722;2023-03-24T13:12:46;98474.16;;;15.41;74.06
14253;BME280;7210;51.502;10.722;2023-03-24T13:15:19;98461.22;;;15.29;74.32
14253;BME280;7210;51.502;10.722;2023-03-24T13:17:54;98385.31;;;15.09;73.10
14253;BME280;7210;51.502;10.722;2023-03-24T13:20:32;98419.63;;;15.10;73.46
14253;BME280;7210;51.502;10.722;2023-03-24T13:23:18;98409.97;;;14.96;74.01
14253;BME280;7210;51.502;10.722;2023-03-24T13:25:56;98392.47;;;14.90;73.90
14253;BME280;7210;51.502;10.722;2023-03-24T13:28:37;98446.59;;;15.04;74.40
14253;BME280;7210;51.502;10.722;2023-03-24T13:31:09;98447.06;;;15.11;73.92
14253;BME280;7210;51.502;10.722;2023-03-24T13:33:39;98457.13;;;15.13;74.19
14253;BME280;7210;51.502;10.722;2023-03-24T13:36:29;98381.09;;;14.84;73.69
14253;BME280;7210;51.502;10.722;2023-03-24T13:39:04;98352.16;;;14.54;73.56
14253;BME280;7210;51.502;10.722;2023-03-24T13:41:35;98402.44;;;14.51;74.40
14253;BME280;7210;51.502;10.722;2023-03-24T13:44:08;98496.63;;;14.78;75.03
14253;BME280;7210;51.502;10.722;2023-03-24T13:46:42;98489.53;;;14.97;74.60
14253;BME280;7210;51.502;10.722;2023-03-24T13:49:13;98452.91;;;14.89;74.37
14253;BME280;7210;51.502;10.722;2023-03-24T13:51:44;98391.66;;;14.66;73.77
14253;BME280;7210;51.502;10.722;2023-03-24T13:54:15;98464.56;;;14.65;74.98